createdAt,value
2018-10-19T00:01:23.159Z,16.00
2018-10-19T00:03:35.773Z,16.00
2018-10-19T00:05:44.650Z,16.01
2018-10-19T00:07:57.327Z,16.03
2018-10-19T00:10:09.566Z,16.03
2018-10-19T00:12:24.626Z,16.00
2018-10-19T00:14:38.866Z,15.97
2018-10-19T00:16:48.418Z,15.96
2018-10-19T00:19:05.924Z,15.92
2018-10-19T00:21:17.805Z,15.92
2018-10-19T00:23:28.997Z,15.91
2018-10-19T00:25:37.233Z,15.92
2018-10-19T00:27:42.618Z,15.92
2018-10-19T00:30:17.228Z,15.92
2018-10-19T00:32:32.849Z,15.91
2018-10-19T00:34:43.403Z,15.89
2018-10-19T00:36:55.600Z,15.89
2018-10-19T00:39:09.466Z,15.90
2018-10-19T00:41:21.717Z,15.90
2018-10-19T00:43:31.125Z,15.92
2018-10-19T00:45:51.135Z,15.94
2018-10-19T00:48:21.066Z,15.95
2018-10-19T00:50:45.375Z,15.96
2018-10-19T00:53:01.589Z,15.97
2018-10-19T00:55:14.170Z,15.97
2018-10-19T00:57:23.059Z,15.96
2018-10-19T00:59:38.054Z,15.93
2018-10-19T01:01:47.283Z,15.92
2018-10-19T01:03:56.261Z,15.92
2018-10-19T01:06:05.726Z,15.89
2018-10-19T01:08:15.663Z,15.88
2018-10-19T01:10:26.654Z,15.88
2018-10-19T01:12:38.948Z,15.83
2018-10-19T01:14:47.671Z,15.76
2018-10-19T01:16:56.665Z,15.68
2018-10-19T01:19:05.903Z,15.63
2018-10-19T01:21:18.084Z,15.55
2018-10-19T01:23:30.450Z,15.49
2018-10-19T01:25:44.346Z,15.43
2018-10-19T01:27:49.580Z,15.39
2018-10-19T01:29:57.629Z,15.34
2018-10-19T01:32:06.778Z,15.29
2018-10-19T01:34:17.928Z,15.23
2018-10-19T01:36:57.576Z,15.16
2018-10-19T01:39:06.182Z,15.11
2018-10-19T01:41:14.919Z,15.04
2018-10-19T01:43:24.750Z,15.05
2018-10-19T01:45:32.736Z,15.04
2018-10-19T01:47:41.281Z,15.05
2018-10-19T01:49:50.567Z,15.03
2018-10-19T01:52:01.170Z,15.00
2018-10-19T01:54:09.756Z,14.96
2018-10-19T01:56:17.713Z,14.94
2018-10-19T01:58:25.789Z,14.91
2018-10-19T02:00:33.764Z,14.90
2018-10-19T02:02:41.752Z,14.90
2018-10-19T02:04:50.058Z,14.90
2018-10-19T02:06:58.234Z,14.91
2018-10-19T02:09:07.315Z,14.94
2018-10-19T02:11:15.354Z,14.96
2018-10-19T02:13:23.404Z,14.96
2018-10-19T02:15:31.365Z,14.95
2018-10-19T02:17:39.556Z,14.96
2018-10-19T02:19:47.597Z,14.95
2018-10-19T02:21:55.610Z,14.95
2018-10-19T02:24:03.623Z,14.97
2018-10-19T02:26:11.591Z,14.97
2018-10-19T02:28:20.261Z,14.94
2018-10-19T02:30:28.395Z,14.92
2018-10-19T02:32:36.390Z,14.86
2018-10-19T02:34:44.356Z,14.81
2018-10-19T02:36:52.442Z,14.75
2018-10-19T02:39:00.712Z,14.71
2018-10-19T02:41:09.038Z,14.69
2018-10-19T02:43:16.940Z,14.69
2018-10-19T02:48:11.207Z,14.74
2018-10-19T02:50:19.217Z,14.76
2018-10-19T02:52:27.239Z,14.78
2018-10-19T02:54:35.223Z,14.81
2018-10-19T02:56:43.233Z,14.83
2018-10-19T02:58:51.208Z,14.86
2018-10-19T03:00:59.228Z,14.84
2018-10-19T03:03:07.502Z,14.80
2018-10-19T03:05:15.444Z,14.77
2018-10-19T03:07:23.475Z,14.71
2018-10-19T03:09:31.424Z,14.67
2018-10-19T03:11:39.425Z,14.61
2018-10-19T03:13:47.442Z,14.55
2018-10-19T03:15:57.752Z,14.51
2018-10-19T03:18:05.772Z,14.49
2018-10-19T03:20:14.309Z,14.51
2018-10-19T03:22:22.201Z,14.54
2018-10-19T03:24:30.275Z,14.56
2018-10-19T03:26:38.546Z,14.59
2018-10-19T03:28:46.516Z,14.61
2018-10-19T03:30:54.592Z,14.62
2018-10-19T03:33:02.604Z,14.61
2018-10-19T03:35:10.689Z,14.62
2018-10-19T03:37:18.539Z,14.60
2018-10-19T03:39:27.582Z,14.59
2018-10-19T03:41:35.605Z,14.58
2018-10-19T03:43:43.548Z,14.59
2018-10-19T03:45:51.875Z,14.60
2018-10-19T03:47:59.897Z,14.59
2018-10-19T03:50:08.726Z,14.59
2018-10-19T03:52:16.725Z,14.58
2018-10-19T03:54:24.726Z,14.57
2018-10-19T03:56:32.797Z,14.55
2018-10-19T03:58:43.931Z,14.55
2018-10-19T04:00:51.836Z,14.54
2018-10-19T04:02:59.983Z,14.52
2018-10-19T04:05:08.400Z,14.47
2018-10-19T04:07:16.476Z,14.41
2018-10-19T04:09:24.928Z,14.35
2018-10-19T04:11:34.102Z,14.31
2018-10-19T04:13:42.122Z,14.27
2018-10-19T04:15:50.122Z,14.25
2018-10-19T04:17:58.901Z,14.22
2018-10-19T04:20:06.961Z,14.19
2018-10-19T04:22:14.950Z,14.15
2018-10-19T04:24:23.015Z,14.11
2018-10-19T04:26:29.309Z,14.07
2018-10-19T04:28:34.602Z,14.03
2018-10-19T04:30:42.667Z,13.99
2018-10-19T04:32:50.795Z,13.97
2018-10-19T04:34:58.969Z,13.94
2018-10-19T04:37:11.120Z,13.92
2018-10-19T04:39:20.517Z,13.90
2018-10-19T04:41:28.628Z,13.87
2018-10-19T04:43:36.635Z,13.84
2018-10-19T04:45:44.627Z,13.81
2018-10-19T04:47:52.750Z,13.78
2018-10-19T04:50:00.610Z,13.75
2018-10-19T04:52:08.736Z,13.73
2018-10-19T04:54:16.795Z,13.72
2018-10-19T04:56:24.855Z,13.73
2018-10-19T04:58:33.626Z,13.74
2018-10-19T05:00:41.668Z,13.77
2018-10-19T05:02:50.759Z,13.79
2018-10-19T05:04:58.785Z,13.77
2018-10-19T05:07:06.863Z,13.76
2018-10-19T05:09:15.450Z,13.76
2018-10-19T05:11:23.501Z,13.72
2018-10-19T05:13:31.515Z,13.70
2018-10-19T05:15:39.547Z,13.68
2018-10-19T05:17:47.575Z,13.64
2018-10-19T05:19:55.729Z,13.62
2018-10-19T05:22:03.797Z,13.61
2018-10-19T05:24:11.751Z,13.59
2018-10-19T05:26:20.182Z,13.57
2018-10-19T05:28:25.433Z,13.56
2018-10-19T05:30:33.513Z,13.57
2018-10-19T05:32:42.863Z,13.57
2018-10-19T05:34:50.737Z,13.56
2018-10-19T05:36:58.845Z,13.55
2018-10-19T05:39:09.491Z,13.53
2018-10-19T05:41:17.558Z,13.50
2018-10-19T05:43:25.542Z,13.49
2018-10-19T05:45:33.527Z,13.48
2018-10-19T05:47:42.185Z,13.47
2018-10-19T05:49:50.289Z,13.44
2018-10-19T05:51:58.451Z,13.42
2018-10-19T05:54:09.076Z,13.38
2018-10-19T05:56:17.464Z,13.35
2018-10-19T05:58:25.478Z,13.32
2018-10-19T06:00:33.511Z,13.30
2018-10-19T06:02:41.594Z,13.29
2018-10-19T06:04:49.710Z,13.31
2018-10-19T06:06:58.816Z,13.30
2018-10-19T06:09:08.708Z,13.30
2018-10-19T06:11:18.723Z,13.28
2018-10-19T06:13:24.757Z,13.28
2018-10-19T06:15:32.860Z,13.29
2018-10-19T06:17:41.144Z,13.29
2018-10-19T06:19:49.235Z,13.29
2018-10-19T06:21:59.692Z,13.32
2018-10-19T06:24:09.223Z,13.33
2018-10-19T06:26:14.558Z,13.35
2018-10-19T06:28:22.509Z,13.35
2018-10-19T06:30:30.516Z,13.33
2018-10-19T06:32:39.044Z,13.33
2018-10-19T06:34:47.071Z,13.30
2018-10-19T06:36:57.485Z,13.26
2018-10-19T06:39:06.013Z,13.23
2018-10-19T06:41:15.839Z,13.19
2018-10-19T06:43:31.872Z,13.17
2018-10-19T06:45:39.952Z,13.17
2018-10-19T06:47:48.059Z,13.17
2018-10-19T06:49:56.071Z,13.16
2018-10-19T06:52:04.052Z,13.16
2018-10-19T06:54:12.035Z,13.17
2018-10-19T06:56:20.004Z,13.15
2018-10-19T06:58:28.048Z,13.15
2018-10-19T07:00:36.062Z,13.18
2018-10-19T07:02:44.680Z,13.23
2018-10-19T07:04:52.688Z,13.30
2018-10-19T07:07:00.687Z,13.36
2018-10-19T07:09:09.794Z,13.44
2018-10-19T07:11:17.899Z,13.50
2018-10-19T07:13:25.812Z,13.56
2018-10-19T07:15:33.924Z,13.61
2018-10-19T07:17:41.815Z,13.62
2018-10-19T07:19:49.815Z,13.64
2018-10-19T07:21:57.875Z,13.66
2018-10-19T07:24:06.026Z,13.70
2018-10-19T07:26:14.117Z,13.73
2018-10-19T07:28:22.691Z,13.77
2018-10-19T07:30:30.785Z,13.82
2018-10-19T07:32:38.862Z,13.87
2018-10-19T07:34:46.945Z,13.92
2018-10-19T07:36:55.001Z,13.95
2018-10-19T07:39:03.006Z,14.03
2018-10-19T07:41:11.218Z,14.10
2018-10-19T07:43:21.044Z,14.19
2018-10-19T07:45:29.967Z,14.27
2018-10-19T07:47:43.654Z,14.31
2018-10-19T07:49:52.779Z,14.34
2018-10-19T07:52:07.753Z,14.38
2018-10-19T07:54:22.352Z,14.45
2018-10-19T07:56:49.065Z,14.52
2018-10-19T07:59:00.029Z,14.59
2018-10-19T08:01:10.224Z,14.66
2018-10-19T08:06:10.170Z,14.76
2018-10-19T08:08:27.796Z,14.85
2018-10-19T08:10:36.778Z,14.92
2018-10-19T08:12:45.230Z,14.97
2018-10-19T08:14:57.652Z,15.03
2018-10-19T08:17:07.606Z,15.07
2018-10-19T08:19:18.559Z,15.13
2018-10-19T08:21:33.189Z,15.22
2018-10-19T08:23:51.210Z,15.29
2018-10-19T08:25:56.801Z,15.38
2018-10-19T08:28:25.381Z,15.48
2018-10-19T08:30:56.687Z,15.56
2018-10-19T08:33:14.825Z,15.62
2018-10-19T08:35:30.450Z,15.70
2018-10-19T08:40:16.113Z,15.94
2018-10-19T08:42:50.760Z,15.97
2018-10-19T08:45:05.988Z,16.04
2018-10-19T08:47:15.728Z,16.12
2018-10-19T08:49:34.428Z,16.19
2018-10-19T08:51:46.306Z,16.22
2018-10-19T08:56:44.934Z,16.33
2018-10-19T08:59:03.016Z,16.41
2018-10-19T09:01:37.315Z,16.48
2018-10-19T09:03:58.818Z,16.53
2018-10-19T09:06:18.778Z,16.61
2018-10-19T09:08:28.315Z,16.67
2018-10-19T09:10:40.930Z,16.74
2018-10-19T09:12:49.681Z,16.81
2018-10-19T09:15:06.157Z,16.88
2018-10-19T09:17:26.896Z,16.94
2018-10-19T09:19:36.373Z,17.01
2018-10-19T09:21:45.094Z,17.08
2018-10-19T09:23:53.963Z,17.17
2018-10-19T09:26:03.971Z,17.24
2018-10-19T09:28:16.970Z,17.32
2018-10-19T09:30:27.259Z,17.38
2018-10-19T09:32:48.077Z,17.46
2018-10-19T09:35:03.022Z,17.49
2018-10-19T09:37:14.179Z,17.51
2018-10-19T09:39:33.027Z,17.60
2018-10-19T09:41:45.713Z,17.66
2018-10-19T09:44:03.233Z,17.70
2018-10-19T09:46:20.705Z,17.75
2018-10-19T09:48:34.425Z,17.81
2018-10-19T09:50:47.313Z,17.87
2018-10-19T09:53:04.297Z,17.91
2018-10-19T09:55:12.834Z,17.96
2018-10-19T09:57:57.638Z,18.01
2018-10-19T10:00:09.375Z,18.07
2018-10-19T10:02:21.310Z,18.10
2018-10-19T10:04:53.825Z,18.13
2018-10-19T10:07:03.761Z,18.17
2018-10-19T10:09:16.423Z,18.20
2018-10-19T10:11:27.515Z,18.25
2018-10-19T10:13:38.521Z,18.29
2018-10-19T10:15:47.531Z,18.32
2018-10-19T10:17:57.570Z,18.37
2018-10-19T10:20:05.769Z,18.41
2018-10-19T10:22:24.064Z,18.44
2018-10-19T10:24:32.530Z,18.49
2018-10-19T10:26:49.501Z,18.53
2018-10-19T10:29:01.785Z,18.57
2018-10-19T10:31:09.943Z,18.62
2018-10-19T10:33:16.070Z,18.66
2018-10-19T10:35:24.365Z,18.72
2018-10-19T10:37:32.556Z,18.76
2018-10-19T10:39:40.566Z,18.80
2018-10-19T10:41:52.154Z,18.87
2018-10-19T10:44:01.631Z,18.94
2018-10-19T10:46:10.323Z,18.97
2018-10-19T10:48:30.000Z,19.01
2018-10-19T10:50:38.996Z,19.05
2018-10-19T10:52:47.240Z,19.09
2018-10-19T10:54:55.448Z,19.12
2018-10-19T10:57:03.678Z,19.13
2018-10-19T10:59:12.161Z,19.19
2018-10-19T11:01:20.487Z,19.23
2018-10-19T11:03:30.957Z,19.26
2018-10-19T11:05:39.029Z,19.29
2018-10-19T11:07:47.919Z,19.32
2018-10-19T11:09:57.453Z,19.34
2018-10-19T11:12:05.578Z,19.39
2018-10-19T11:14:13.745Z,19.43
2018-10-19T11:16:21.813Z,19.48
2018-10-19T11:18:29.841Z,19.51
2018-10-19T11:20:37.912Z,19.56
2018-10-19T11:22:46.050Z,19.60
2018-10-19T11:24:54.060Z,19.67
2018-10-19T11:27:02.170Z,19.70
2018-10-19T11:29:10.172Z,19.74
2018-10-19T11:31:18.311Z,19.79
2018-10-19T11:33:25.840Z,19.81
2018-10-19T11:35:33.855Z,19.87
2018-10-19T11:37:41.932Z,19.93
2018-10-19T11:40:40.021Z,19.97
2018-10-19T11:42:48.051Z,20.00
2018-10-19T11:44:56.004Z,20.01
2018-10-19T11:47:04.182Z,20.04
2018-10-19T11:49:12.309Z,20.08
2018-10-19T11:51:20.324Z,20.10
2018-10-19T11:53:28.403Z,20.17
2018-10-19T11:55:36.463Z,20.19
2018-10-19T11:57:44.550Z,20.22
2018-10-19T11:59:52.629Z,20.26
2018-10-19T12:02:01.103Z,20.29
2018-10-19T12:04:17.031Z,20.33
2018-10-19T12:06:25.854Z,20.39
2018-10-19T12:08:33.918Z,20.43
2018-10-19T12:10:42.076Z,20.45
2018-10-19T12:12:50.110Z,20.51
2018-10-19T12:14:58.397Z,20.56
2018-10-19T12:17:06.600Z,20.59
2018-10-19T12:19:14.828Z,20.63
2018-10-19T12:21:22.922Z,20.65
2018-10-19T12:23:31.732Z,20.66
2018-10-19T12:25:39.945Z,20.69
2018-10-19T12:27:47.979Z,20.73
2018-10-19T12:29:56.054Z,20.75
2018-10-19T12:32:04.321Z,20.78
2018-10-19T12:34:10.573Z,20.82
2018-10-19T12:36:18.625Z,20.86
2018-10-19T12:38:26.720Z,20.91
2018-10-19T12:40:34.993Z,20.93
2018-10-19T12:42:42.947Z,20.97
2018-10-19T12:44:50.992Z,20.96
2018-10-19T12:47:55.361Z,21.02
2018-10-19T12:50:05.302Z,21.04
2018-10-19T12:52:14.639Z,21.07
2018-10-19T12:54:22.763Z,21.09
2018-10-19T12:56:30.723Z,21.11
2018-10-19T12:58:39.784Z,21.12
2018-10-19T13:00:59.263Z,21.16
2018-10-19T13:03:07.365Z,21.20
2018-10-19T13:05:18.649Z,21.23
2018-10-19T13:07:27.668Z,21.26
2018-10-19T13:09:41.530Z,21.30
2018-10-19T13:13:19.083Z,21.34
2018-10-19T13:15:27.153Z,21.38
2018-10-19T13:17:42.688Z,21.43
2018-10-19T13:20:01.831Z,21.46
2018-10-19T13:22:25.664Z,21.50
2018-10-19T13:24:33.814Z,21.51
2018-10-19T13:26:56.207Z,21.55
2018-10-19T13:29:15.615Z,21.59
2018-10-19T13:33:59.434Z,21.71
2018-10-19T13:38:56.188Z,21.71
2018-10-19T13:41:04.325Z,21.74
2018-10-19T13:43:49.894Z,21.79
2018-10-19T13:46:00.220Z,21.81
2018-10-19T13:48:36.952Z,21.85
2018-10-19T13:50:53.268Z,21.89
2018-10-19T13:53:07.208Z,21.91
2018-10-19T13:55:25.218Z,21.91
2018-10-19T13:57:43.621Z,21.94
2018-10-19T13:59:50.382Z,21.94
2018-10-19T14:02:03.637Z,21.94
2018-10-19T14:04:11.613Z,21.95
2018-10-19T14:06:26.719Z,21.98
2018-10-19T14:08:52.805Z,22.01
2018-10-19T14:11:17.337Z,22.02
2018-10-19T14:13:34.136Z,22.03
2018-10-19T14:15:55.132Z,22.02
2018-10-19T14:18:03.197Z,22.06
2018-10-19T14:20:17.656Z,22.07
2018-10-19T14:22:35.440Z,22.08
2018-10-19T14:24:53.710Z,22.08
2018-10-19T14:27:15.492Z,22.08
2018-10-19T14:29:23.757Z,22.09
2018-10-19T14:31:39.525Z,22.10
2018-10-19T14:34:17.142Z,22.12
2018-10-19T14:36:27.076Z,22.11
2018-10-19T14:38:59.765Z,22.10
2018-10-19T14:41:23.610Z,22.11
2018-10-19T14:43:27.562Z,22.10
2018-10-19T14:45:36.618Z,22.11
2018-10-19T14:47:47.176Z,22.09
2018-10-19T14:49:56.514Z,22.10
2018-10-19T14:52:10.714Z,22.12
2018-10-19T14:54:20.020Z,22.11
2018-10-19T14:56:37.071Z,22.10
2018-10-19T14:58:45.822Z,22.08
2018-10-19T15:00:54.902Z,22.08
2018-10-19T15:03:04.439Z,22.09
2018-10-19T15:05:20.336Z,22.08
2018-10-19T15:07:28.449Z,22.06
2018-10-19T15:09:36.671Z,22.07
2018-10-19T15:11:50.164Z,22.08
2018-10-19T15:14:03.200Z,22.07
2018-10-19T15:16:14.724Z,22.05
2018-10-19T15:18:25.015Z,22.03
2018-10-19T15:20:35.273Z,22.03
2018-10-19T15:22:44.334Z,22.01
2018-10-19T15:24:57.634Z,22.01
2018-10-19T15:27:09.640Z,21.99
2018-10-19T15:29:22.261Z,21.98
2018-10-19T15:31:51.829Z,21.96
2018-10-19T15:34:06.916Z,21.95
2018-10-19T15:36:14.279Z,21.93
2018-10-19T15:38:27.299Z,21.91
2018-10-19T15:40:37.649Z,21.90
2018-10-19T15:42:46.606Z,21.86
2018-10-19T15:44:56.038Z,21.85
2018-10-19T15:47:04.522Z,21.83
2018-10-19T15:49:13.676Z,21.79
2018-10-19T15:51:24.295Z,21.77
2018-10-19T15:53:32.914Z,21.76
2018-10-19T15:55:43.603Z,21.72
2018-10-19T15:57:51.875Z,21.69
2018-10-19T16:00:00.411Z,21.66
2018-10-19T16:02:12.808Z,21.62
2018-10-19T16:04:25.572Z,21.60
2018-10-19T16:06:35.240Z,21.55
2018-10-19T16:08:43.623Z,21.51
2018-10-19T16:10:51.743Z,21.47
2018-10-19T16:13:01.044Z,21.44
2018-10-19T16:15:12.896Z,21.41
2018-10-19T16:17:27.948Z,21.36
2018-10-19T16:19:38.668Z,21.33
2018-10-19T16:24:55.597Z,21.20
2018-10-19T16:27:03.821Z,21.14
2018-10-19T16:29:11.887Z,21.11
2018-10-19T16:31:20.510Z,21.07
2018-10-19T16:33:40.615Z,21.03
2018-10-19T16:35:51.966Z,20.93
2018-10-19T16:38:06.784Z,20.74
2018-10-19T16:40:18.335Z,20.57
2018-10-19T16:42:27.510Z,20.42
2018-10-19T16:44:36.984Z,20.27
2018-10-19T16:46:45.241Z,20.15
2018-10-19T16:48:53.525Z,20.03
2018-10-19T16:51:01.741Z,19.93
2018-10-19T16:53:13.495Z,19.83
2018-10-19T16:55:24.706Z,19.72
2018-10-19T16:57:33.234Z,19.64
2018-10-19T16:59:42.290Z,19.57
2018-10-19T17:01:51.822Z,19.53
2018-10-19T17:04:00.236Z,19.49
2018-10-19T17:06:09.157Z,19.46
2018-10-19T17:08:21.864Z,19.38
2018-10-19T17:10:30.654Z,19.32
2018-10-19T17:12:43.299Z,19.23
2018-10-19T17:14:52.791Z,19.15
2018-10-19T17:17:02.575Z,19.08
2018-10-19T17:19:16.876Z,19.00
2018-10-19T17:21:28.911Z,18.94
2018-10-19T17:23:41.975Z,18.93
2018-10-19T17:25:50.684Z,18.93
2018-10-19T17:27:59.155Z,18.92
2018-10-19T17:30:09.360Z,18.92
2018-10-19T17:32:18.826Z,18.90
2018-10-19T17:34:30.400Z,18.85
2018-10-19T17:36:42.184Z,18.79
2018-10-19T17:38:52.459Z,18.75
2018-10-19T17:40:57.972Z,18.69
2018-10-19T17:43:06.315Z,18.60
2018-10-19T17:45:23.606Z,18.50
2018-10-19T17:47:39.242Z,18.37
2018-10-19T17:49:48.667Z,18.24
2018-10-19T17:52:01.384Z,18.15
2018-10-19T17:54:17.056Z,18.08
2018-10-19T17:56:27.902Z,18.03
2018-10-19T17:58:42.310Z,17.98
2018-10-19T18:00:51.053Z,17.94
2018-10-19T18:03:00.215Z,17.88
2018-10-19T18:05:09.460Z,17.82
2018-10-19T18:07:18.491Z,17.76
2018-10-19T18:09:30.856Z,17.70
2018-10-19T18:11:39.821Z,17.66
2018-10-19T18:13:47.821Z,17.62
2018-10-19T18:15:56.312Z,17.56
2018-10-19T18:18:04.515Z,17.50
2018-10-19T18:20:12.698Z,17.38
2018-10-19T18:22:27.400Z,17.32
2018-10-19T18:25:17.600Z,17.23
2018-10-19T18:28:02.878Z,17.14
2018-10-19T18:31:09.868Z,17.08
2018-10-19T18:34:00.833Z,17.03
2018-10-19T18:35:50.119Z,17.07
2018-10-19T18:39:01.906Z,17.13
2018-10-19T18:41:14.241Z,17.14
2018-10-19T18:43:53.203Z,17.10
2018-10-19T18:46:22.480Z,17.11
2018-10-19T18:48:50.668Z,17.06
2018-10-19T18:51:20.693Z,17.04
2018-10-19T18:53:48.855Z,16.98
2018-10-19T18:56:06.563Z,16.89
2018-10-19T19:01:28.211Z,16.90
2018-10-19T19:03:34.738Z,16.82
2018-10-19T19:06:00.690Z,16.83
2018-10-19T19:08:19.877Z,16.84
2018-10-19T19:10:42.685Z,16.89
2018-10-19T19:13:15.262Z,16.93
2018-10-19T19:15:36.152Z,16.95
2018-10-19T19:17:48.135Z,16.91
2018-10-19T19:22:26.365Z,16.86
2018-10-19T19:25:02.449Z,16.80
2018-10-19T19:27:16.394Z,16.81
2018-10-19T19:29:26.240Z,16.82
2018-10-19T19:31:35.687Z,16.84
2018-10-19T19:34:14.234Z,16.85
2018-10-19T19:36:36.218Z,16.86
2018-10-19T19:38:55.309Z,16.73
2018-10-19T19:41:25.900Z,16.58
2018-10-19T19:43:39.391Z,16.41
2018-10-19T19:45:49.074Z,16.21
2018-10-19T19:48:23.100Z,16.03
2018-10-19T19:50:32.413Z,15.88
2018-10-19T19:52:50.709Z,15.76
2018-10-19T19:55:06.439Z,15.71
2018-10-19T19:57:15.628Z,15.65
2018-10-19T19:59:32.085Z,15.62
2018-10-19T20:01:50.228Z,15.57
2018-10-19T20:04:11.869Z,15.51
2018-10-19T20:06:20.712Z,15.48
2018-10-19T20:08:28.875Z,15.45
2018-10-19T20:10:37.051Z,15.44
2018-10-19T20:12:45.259Z,15.39
2018-10-19T20:14:53.328Z,15.37
2018-10-19T20:17:01.496Z,15.32
2018-10-19T20:19:09.498Z,15.28
2018-10-19T20:21:17.770Z,15.25
2018-10-19T20:23:25.928Z,15.23
2018-10-19T20:25:34.165Z,15.20
2018-10-19T20:27:42.603Z,15.16
2018-10-19T20:29:50.664Z,15.14
2018-10-19T20:31:58.773Z,15.12
2018-10-19T20:34:07.082Z,15.11
2018-10-19T20:36:15.306Z,15.10
2018-10-19T20:38:23.487Z,15.11
2018-10-19T20:40:31.545Z,15.17
2018-10-19T20:42:39.656Z,15.24
2018-10-19T20:44:45.208Z,15.31
2018-10-19T20:46:53.296Z,15.37
2018-10-19T20:49:08.226Z,15.43
2018-10-19T20:51:25.190Z,15.48
2018-10-19T20:53:55.833Z,15.53
2018-10-19T20:56:09.845Z,15.58
2018-10-19T20:58:21.543Z,15.58
2018-10-19T21:00:38.565Z,15.50
2018-10-19T21:02:58.695Z,15.41
2018-10-19T21:05:22.445Z,15.32
2018-10-19T21:07:52.644Z,15.27
2018-10-19T21:10:04.451Z,15.22
2018-10-19T21:13:00.393Z,15.22
2018-10-19T21:15:30.105Z,15.20
2018-10-19T21:17:58.218Z,15.12
2018-10-19T21:20:34.488Z,15.04
2018-10-19T21:23:15.914Z,14.94
2018-10-19T21:26:15.734Z,14.89
2018-10-19T21:28:44.638Z,14.88
2018-10-19T21:31:44.110Z,14.83
2018-10-19T21:33:58.041Z,14.80
2018-10-19T21:36:14.132Z,14.74
2018-10-19T21:38:34.367Z,14.65
2018-10-19T21:40:54.768Z,14.54
2018-10-19T21:43:59.656Z,14.41
2018-10-19T21:55:57.490Z,14.11
2018-10-19T21:58:29.838Z,14.01
2018-10-19T22:00:41.295Z,13.95
2018-10-19T22:05:36.875Z,13.85
2018-10-19T22:07:48.397Z,13.82
2018-10-19T22:10:06.352Z,13.84
2018-10-19T22:12:31.710Z,13.87
2018-10-19T22:14:43.823Z,13.87
2018-10-19T22:16:54.465Z,13.91
2018-10-19T22:25:11.397Z,13.96
2018-10-19T22:27:20.574Z,14.00
2018-10-19T22:29:35.981Z,14.03
2018-10-19T22:31:52.550Z,14.02
2018-10-19T22:34:04.957Z,13.99
2018-10-19T22:38:37.766Z,14.08
2018-10-19T22:43:40.174Z,14.13
2018-10-19T22:45:49.602Z,14.00
2018-10-19T22:47:55.755Z,13.80
2018-10-19T22:50:04.953Z,13.67
2018-10-19T22:52:24.350Z,13.52
2018-10-19T22:54:39.871Z,13.44
2018-10-19T22:57:10.355Z,13.37
2018-10-19T23:02:04.286Z,13.31
2018-10-19T23:04:19.048Z,13.29
2018-10-19T23:06:53.583Z,13.26
2018-10-19T23:11:42.170Z,13.23
2018-10-19T23:14:16.685Z,13.18
2018-10-19T23:16:42.298Z,13.22
2018-10-19T23:19:02.463Z,13.29
2018-10-19T23:21:14.322Z,13.31
2018-10-19T23:26:22.674Z,13.28
2018-10-19T23:28:42.458Z,13.20
2018-10-19T23:30:54.217Z,13.19
2018-10-19T23:33:06.856Z,13.20
2018-10-19T23:35:16.600Z,13.26
2018-10-19T23:37:32.330Z,13.30
2018-10-19T23:39:44.146Z,13.36
2018-10-19T23:41:57.144Z,13.41
2018-10-19T23:44:12.280Z,13.41
2018-10-19T23:46:28.956Z,13.36
2018-10-19T23:48:37.363Z,13.30
2018-10-19T23:50:47.192Z,13.27
2018-10-19T23:53:02.537Z,13.24
2018-10-19T23:55:10.055Z,13.22
2018-10-19T23:57:33.297Z,13.19
2018-10-19T23:59:51.956Z,13.20
